createdAt,value
2023-05-18T00:00:55.605Z,1.35
2023-05-18T00:01:57.790Z,1.80
2023-05-18T00:03:02.364Z,1.88
2023-05-18T00:04:05.504Z,1.50
2023-05-18T00:05:10.397Z,1.98
2023-05-18T00:06:12.805Z,1.80
2023-05-18T00:07:15.611Z,2.08
2023-05-18T00:08:18.027Z,1.92
2023-05-18T00:09:21.559Z,1.90
2023-05-18T00:10:23.822Z,2.08
2023-05-18T00:11:26.172Z,1.73
2023-05-18T00:12:28.447Z,1.52
2023-05-18T00:13:31.123Z,1.85
2023-05-18T00:14:33.442Z,1.60
2023-05-18T00:15:35.672Z,1.77
2023-05-18T00:16:37.998Z,1.55
2023-05-18T00:17:40.335Z,2.10
2023-05-18T00:18:42.667Z,2.30
2023-05-18T00:19:47.001Z,1.95
2023-05-18T00:20:50.707Z,1.92
2023-05-18T00:21:53.251Z,1.55
2023-05-18T00:22:55.553Z,1.98
2023-05-18T00:23:58.780Z,2.28
2023-05-18T00:25:02.710Z,2.08
2023-05-18T00:26:05.260Z,1.98
2023-05-18T00:27:07.410Z,2.05
2023-05-18T00:28:09.909Z,1.73
2023-05-18T00:29:12.379Z,1.90
2023-05-18T00:30:14.939Z,2.00
2023-05-18T00:31:17.161Z,2.20
2023-05-18T00:32:19.476Z,2.30
2023-05-18T00:33:22.033Z,2.10
2023-05-18T00:34:24.246Z,2.20
2023-05-18T00:35:26.601Z,2.10
2023-05-18T00:36:28.785Z,1.90
2023-05-18T00:37:31.622Z,2.35
2023-05-18T00:38:33.887Z,2.00
2023-05-18T00:39:36.110Z,2.25
2023-05-18T00:40:39.966Z,2.00
2023-05-18T00:41:42.457Z,2.60
2023-05-18T00:42:44.694Z,2.20
2023-05-18T00:43:47.418Z,2.17
2023-05-18T00:44:49.822Z,3.00
2023-05-18T00:45:52.056Z,2.80
2023-05-18T00:46:54.617Z,1.98
2023-05-18T00:47:56.852Z,2.33
2023-05-18T00:49:02.176Z,2.20
2023-05-18T00:50:05.219Z,2.53
2023-05-18T00:51:07.646Z,2.20
2023-05-18T00:52:10.116Z,2.10
2023-05-18T00:53:12.377Z,2.33
2023-05-18T00:54:15.832Z,2.15
2023-05-18T00:55:18.427Z,1.75
2023-05-18T00:56:23.719Z,2.00
2023-05-18T00:57:27.132Z,2.15
2023-05-18T00:58:30.171Z,2.03
2023-05-18T00:59:32.841Z,1.88
2023-05-18T01:00:37.787Z,2.38
2023-05-18T01:01:47.187Z,1.85
2023-05-18T01:02:51.452Z,2.63
2023-05-18T01:03:56.592Z,2.50
2023-05-18T01:05:00.767Z,2.30
2023-05-18T01:06:05.799Z,2.53
2023-05-18T01:07:08.268Z,1.90
2023-05-18T01:08:10.840Z,2.25
2023-05-18T01:09:14.369Z,1.80
2023-05-18T01:10:19.809Z,2.10
2023-05-18T01:11:32.473Z,2.30
2023-05-18T01:12:41.451Z,2.25
2023-05-18T01:13:54.305Z,2.85
2023-05-18T01:15:08.803Z,2.35
2023-05-18T01:16:17.198Z,2.58
2023-05-18T01:17:27.389Z,2.30
2023-05-18T01:18:38.472Z,2.30
2023-05-18T01:20:09.130Z,2.35
2023-05-18T01:21:19.537Z,2.20
2023-05-18T01:22:37.954Z,2.47
2023-05-18T01:23:53.635Z,2.15
2023-05-18T01:25:04.791Z,2.47
2023-05-18T01:26:30.382Z,2.20
2023-05-18T01:27:38.025Z,1.98
2023-05-18T01:28:41.171Z,2.00
2023-05-18T01:29:45.766Z,2.30
2023-05-18T01:30:48.719Z,2.15
2023-05-18T01:33:09.003Z,4.75
2023-05-18T01:34:11.292Z,2.92
2023-05-18T01:35:13.589Z,2.15
2023-05-18T01:36:16.006Z,1.95
2023-05-18T01:37:18.465Z,2.38
2023-05-18T01:38:22.933Z,2.03
2023-05-18T01:39:25.217Z,2.08
2023-05-18T01:40:29.924Z,4.43
2023-05-18T01:41:37.555Z,1.95
2023-05-18T01:42:45.620Z,1.70
2023-05-18T01:43:53.569Z,2.15
2023-05-18T01:45:03.025Z,2.15
2023-05-18T01:46:10.234Z,2.35
2023-05-18T01:47:14.269Z,1.92
2023-05-18T01:48:20.746Z,2.17
2023-05-18T01:49:29.266Z,1.88
2023-05-18T01:50:37.994Z,1.50
2023-05-18T01:51:47.148Z,2.10
2023-05-18T01:52:57.659Z,1.85
2023-05-18T01:54:03.804Z,1.98
2023-05-18T01:55:08.025Z,1.70
2023-05-18T01:56:12.056Z,2.38
2023-05-18T01:57:18.837Z,1.70
2023-05-18T01:58:22.104Z,1.63
2023-05-18T01:59:24.884Z,1.83
2023-05-18T02:00:27.416Z,1.50
2023-05-18T02:01:30.238Z,1.85
2023-05-18T02:02:32.594Z,2.08
2023-05-18T02:03:35.209Z,2.20
2023-05-18T02:04:38.119Z,1.92
2023-05-18T02:05:40.648Z,2.47
2023-05-18T02:06:43.486Z,1.88
2023-05-18T02:07:47.730Z,2.20
2023-05-18T02:08:50.863Z,2.60
2023-05-18T02:09:53.028Z,2.38
2023-05-18T02:10:55.636Z,1.77
2023-05-18T02:11:57.877Z,1.63
2023-05-18T02:13:02.043Z,2.22
2023-05-18T02:14:04.256Z,1.90
2023-05-18T02:15:07.645Z,2.00
2023-05-18T02:16:11.051Z,1.65
2023-05-18T02:17:13.288Z,2.10
2023-05-18T02:18:16.688Z,1.90
2023-05-18T02:19:19.252Z,1.95
2023-05-18T02:20:21.511Z,2.05
2023-05-18T02:21:26.480Z,1.88
2023-05-18T02:22:28.658Z,1.98
2023-05-18T02:23:31.353Z,1.83
2023-05-18T02:24:33.750Z,1.90
2023-05-18T02:25:37.231Z,2.00
2023-05-18T02:26:39.733Z,2.20
2023-05-18T02:27:42.559Z,2.10
2023-05-18T02:28:46.397Z,1.85
2023-05-18T02:29:48.570Z,1.90
2023-05-18T02:30:50.792Z,2.15
2023-05-18T02:31:53.291Z,2.22
2023-05-18T02:32:56.182Z,1.90
2023-05-18T02:33:59.124Z,2.00
2023-05-18T02:35:02.583Z,2.03
2023-05-18T02:36:05.192Z,1.50
2023-05-18T02:37:07.649Z,1.73
2023-05-18T02:38:09.855Z,2.58
2023-05-18T02:39:13.108Z,2.20
2023-05-18T02:40:16.337Z,2.50
2023-05-18T02:41:18.672Z,2.17
2023-05-18T02:42:20.906Z,2.53
2023-05-18T02:43:24.677Z,2.40
2023-05-18T02:44:28.263Z,2.05
2023-05-18T02:45:30.712Z,1.77
2023-05-18T02:46:33.182Z,2.33
2023-05-18T02:47:35.822Z,2.45
2023-05-18T02:48:38.049Z,1.92
2023-05-18T02:49:40.722Z,2.10
2023-05-18T02:50:44.616Z,2.38
2023-05-18T02:51:46.863Z,2.60
2023-05-18T02:52:50.356Z,1.80
2023-05-18T02:53:53.058Z,2.50
2023-05-18T02:54:56.228Z,2.05
2023-05-18T02:55:58.456Z,1.80
2023-05-18T02:57:00.719Z,2.25
2023-05-18T02:58:03.425Z,2.50
2023-05-18T02:59:08.044Z,1.95
2023-05-18T03:00:16.688Z,2.15
2023-05-18T03:01:19.172Z,2.08
2023-05-18T03:02:23.495Z,1.88
2023-05-18T03:03:26.098Z,2.20
2023-05-18T03:04:28.386Z,1.80
2023-05-18T03:05:31.257Z,1.70
2023-05-18T03:06:33.735Z,2.30
2023-05-18T03:07:35.887Z,2.53
2023-05-18T03:08:38.260Z,2.45
2023-05-18T03:09:40.529Z,1.52
2023-05-18T03:10:42.685Z,1.95
2023-05-18T03:11:44.950Z,2.10
2023-05-18T03:12:47.830Z,2.30
2023-05-18T03:13:50.574Z,2.20
2023-05-18T03:14:52.748Z,1.90
2023-05-18T03:15:56.997Z,1.92
2023-05-18T03:16:59.271Z,1.75
2023-05-18T03:18:01.523Z,1.50
2023-05-18T03:19:03.837Z,2.20
2023-05-18T03:20:07.424Z,2.60
2023-05-18T03:21:10.138Z,2.60
2023-05-18T03:22:12.373Z,1.60
2023-05-18T03:23:14.520Z,2.20
2023-05-18T03:24:16.764Z,2.22
2023-05-18T03:25:18.974Z,2.13
2023-05-18T03:26:26.091Z,2.25
2023-05-18T03:27:28.522Z,2.05
2023-05-18T03:28:30.935Z,1.85
2023-05-18T03:29:34.525Z,2.30
2023-05-18T03:30:36.874Z,1.90
2023-05-18T03:31:41.294Z,2.10
2023-05-18T03:32:43.553Z,2.35
2023-05-18T03:33:45.798Z,1.80
2023-05-18T03:34:48.056Z,1.67
2023-05-18T03:35:52.391Z,1.75
2023-05-18T03:36:55.116Z,1.75
2023-05-18T03:37:57.820Z,1.90
2023-05-18T03:38:59.967Z,2.28
2023-05-18T03:40:12.141Z,1.90
2023-05-18T03:41:14.914Z,2.10
2023-05-18T03:42:17.209Z,2.22
2023-05-18T03:43:19.366Z,1.77
2023-05-18T03:44:22.566Z,2.05
2023-05-18T03:45:25.176Z,1.90
2023-05-18T03:46:27.819Z,2.35
2023-05-18T03:47:31.514Z,2.38
2023-05-18T03:48:33.775Z,1.88
2023-05-18T03:49:36.055Z,1.92
2023-05-18T03:50:38.721Z,1.73
2023-05-18T03:51:40.940Z,2.20
2023-05-18T03:52:44.835Z,2.15
2023-05-18T03:53:47.165Z,2.03
2023-05-18T03:54:49.880Z,2.03
2023-05-18T03:55:52.686Z,2.35
2023-05-18T03:56:55.202Z,2.25
2023-05-18T03:57:59.211Z,2.00
2023-05-18T03:59:01.467Z,1.70
2023-05-18T04:00:07.668Z,1.98
2023-05-18T04:01:09.993Z,2.15
2023-05-18T04:02:13.377Z,2.10
2023-05-18T04:03:17.505Z,1.95
2023-05-18T04:04:23.471Z,2.08
2023-05-18T04:05:26.231Z,2.13
2023-05-18T04:06:28.560Z,1.73
2023-05-18T04:07:30.994Z,3.30
2023-05-18T04:08:34.527Z,2.58
2023-05-18T04:09:37.101Z,1.90
2023-05-18T04:10:39.307Z,2.00
2023-05-18T04:11:42.043Z,2.08
2023-05-18T04:12:44.322Z,2.10
2023-05-18T04:13:46.553Z,2.08
2023-05-18T04:14:49.903Z,2.13
2023-05-18T04:15:52.340Z,2.05
2023-05-18T04:16:54.905Z,2.00
2023-05-18T04:17:57.255Z,1.98
2023-05-18T04:19:01.940Z,2.13
2023-05-18T04:20:13.537Z,2.45
2023-05-18T04:21:16.278Z,2.00
2023-05-18T04:22:18.741Z,2.20
2023-05-18T04:23:20.966Z,1.60
2023-05-18T04:24:23.607Z,2.08
2023-05-18T04:25:28.680Z,2.25
2023-05-18T04:26:31.603Z,2.10
2023-05-18T04:27:34.220Z,1.70
2023-05-18T04:28:37.760Z,2.40
2023-05-18T04:29:40.661Z,2.20
2023-05-18T04:30:43.092Z,2.10
2023-05-18T04:31:48.173Z,2.08
2023-05-18T04:32:51.135Z,2.22
2023-05-18T04:33:53.931Z,2.08
2023-05-18T04:34:58.631Z,2.03
2023-05-18T04:36:05.062Z,2.10
2023-05-18T04:37:07.995Z,1.30
2023-05-18T04:38:10.860Z,1.77
2023-05-18T04:39:13.290Z,1.70
2023-05-18T04:40:17.643Z,1.98
2023-05-18T04:41:22.985Z,1.73
2023-05-18T04:42:27.591Z,1.90
2023-05-18T04:43:29.755Z,1.90
2023-05-18T04:44:34.130Z,1.63
2023-05-18T04:45:37.196Z,1.75
2023-05-18T04:46:40.863Z,1.42
2023-05-18T04:47:47.066Z,1.77
2023-05-18T04:48:50.129Z,1.50
2023-05-18T04:49:52.684Z,1.30
2023-05-18T04:50:56.554Z,2.03
2023-05-18T04:51:59.517Z,1.20
2023-05-18T04:53:02.622Z,1.10
2023-05-18T04:54:06.422Z,1.23
2023-05-18T04:55:10.989Z,1.45
2023-05-18T04:56:14.267Z,1.55
2023-05-18T04:57:16.687Z,1.58
2023-05-18T04:58:19.127Z,1.83
2023-05-18T04:59:26.407Z,1.45
2023-05-18T05:00:30.351Z,1.40
2023-05-18T05:01:32.558Z,1.40
2023-05-18T05:02:34.876Z,1.80
2023-05-18T05:03:37.194Z,1.60
2023-05-18T05:04:39.466Z,1.40
2023-05-18T05:05:41.727Z,1.52
2023-05-18T05:06:45.764Z,2.03
2023-05-18T05:07:49.585Z,1.67
2023-05-18T05:08:52.026Z,1.70
2023-05-18T05:09:54.239Z,2.20
2023-05-18T05:10:56.442Z,1.90
2023-05-18T05:11:58.658Z,2.03
2023-05-18T05:13:01.113Z,2.38
2023-05-18T05:14:03.470Z,2.25
2023-05-18T05:15:08.237Z,2.05
2023-05-18T05:16:10.690Z,1.85
2023-05-18T05:17:13.009Z,2.60
2023-05-18T05:18:15.401Z,1.75
2023-05-18T05:19:18.023Z,2.17
2023-05-18T05:20:20.517Z,1.88
2023-05-18T05:21:22.826Z,1.83
2023-05-18T05:22:26.693Z,1.90
2023-05-18T05:23:31.457Z,2.13
2023-05-18T05:24:33.650Z,3.30
2023-05-18T05:25:36.110Z,3.20
2023-05-18T05:26:38.338Z,3.15
2023-05-18T05:27:40.625Z,3.47
2023-05-18T05:28:42.796Z,3.83
2023-05-18T05:29:46.898Z,3.17
2023-05-18T05:30:49.122Z,2.67
2023-05-18T05:31:51.394Z,3.30
2023-05-18T05:32:53.780Z,4.20
2023-05-18T05:33:56.376Z,4.40
2023-05-18T05:34:58.597Z,4.22
2023-05-18T05:36:00.862Z,2.78
2023-05-18T05:37:03.249Z,4.30
2023-05-18T05:38:07.839Z,3.63
2023-05-18T05:39:10.188Z,3.25
2023-05-18T05:40:13.297Z,3.80
2023-05-18T05:41:15.672Z,3.70
2023-05-18T05:42:17.865Z,4.10
2023-05-18T05:43:20.074Z,4.25
2023-05-18T05:44:22.822Z,5.07
2023-05-18T05:45:25.180Z,5.57
2023-05-18T05:46:27.484Z,5.97
2023-05-18T05:47:29.724Z,4.88
2023-05-18T05:48:31.972Z,2.80
2023-05-18T05:49:34.249Z,2.50
2023-05-18T05:50:37.042Z,2.28
2023-05-18T05:51:39.256Z,2.85
2023-05-18T05:52:41.454Z,2.97
2023-05-18T05:53:47.605Z,4.35
2023-05-18T05:54:50.591Z,2.20
2023-05-18T05:55:52.959Z,2.67
2023-05-18T05:56:55.344Z,1.90
2023-05-18T05:57:57.570Z,2.00
2023-05-18T05:58:59.691Z,2.08
2023-05-18T06:00:03.176Z,1.42
2023-05-18T06:01:05.502Z,2.17
2023-05-18T06:02:08.186Z,2.20
2023-05-18T06:03:10.581Z,2.17
2023-05-18T06:04:12.943Z,1.83
2023-05-18T06:05:15.210Z,2.67
2023-05-18T06:06:17.448Z,2.50
2023-05-18T06:07:19.617Z,2.17
2023-05-18T06:08:24.244Z,2.00
2023-05-18T06:09:27.868Z,1.98
2023-05-18T06:10:31.394Z,2.00
2023-05-18T06:11:33.907Z,1.85
2023-05-18T06:12:36.126Z,1.55
2023-05-18T06:13:38.506Z,1.30
2023-05-18T06:14:40.736Z,1.42
2023-05-18T06:15:42.911Z,1.52
2023-05-18T06:16:45.160Z,1.55
2023-05-18T06:17:47.391Z,1.50
2023-05-18T06:18:49.554Z,1.50
2023-05-18T06:19:51.842Z,1.50
2023-05-18T06:20:54.024Z,1.50
2023-05-18T06:21:56.299Z,1.45
2023-05-18T06:22:58.579Z,1.30
2023-05-18T06:24:01.530Z,1.50
2023-05-18T06:25:06.146Z,1.20
2023-05-18T06:26:08.460Z,7.55
2023-05-18T06:27:11.571Z,1.05
2023-05-18T06:28:13.830Z,1.38
2023-05-18T06:29:15.949Z,1.50
2023-05-18T06:30:18.431Z,1.15
2023-05-18T06:31:21.092Z,1.48
2023-05-18T06:32:24.108Z,1.20
2023-05-18T06:33:26.590Z,1.30
2023-05-18T06:34:28.920Z,1.73
2023-05-18T06:35:31.319Z,1.27
2023-05-18T06:36:34.375Z,1.10
2023-05-18T06:37:37.784Z,1.20
2023-05-18T06:38:39.988Z,1.33
2023-05-18T06:39:42.469Z,1.73
2023-05-18T06:40:46.092Z,2.22
2023-05-18T06:41:48.313Z,1.80
2023-05-18T06:42:51.558Z,2.00
2023-05-18T06:43:54.576Z,1.65
2023-05-18T06:44:57.429Z,2.40
2023-05-18T06:45:59.757Z,2.60
2023-05-18T06:47:02.366Z,2.17
2023-05-18T06:48:05.393Z,2.00
2023-05-18T06:49:07.635Z,2.30
2023-05-18T06:50:10.411Z,2.75
2023-05-18T06:51:12.520Z,2.65
2023-05-18T06:52:14.860Z,2.70
2023-05-18T06:53:17.442Z,3.00
2023-05-18T06:54:19.772Z,2.38
2023-05-18T06:55:22.365Z,2.33
2023-05-18T06:56:26.561Z,2.13
2023-05-18T06:57:28.884Z,1.80
2023-05-18T06:58:31.288Z,2.10
2023-05-18T06:59:34.827Z,2.00
2023-05-18T07:00:37.579Z,1.85
2023-05-18T07:01:39.810Z,1.75
2023-05-18T07:02:44.387Z,1.80
2023-05-18T07:03:46.801Z,1.70
2023-05-18T07:04:49.706Z,2.67
2023-05-18T07:05:51.937Z,2.72
2023-05-18T07:06:55.918Z,3.00
2023-05-18T07:07:58.216Z,3.20
2023-05-18T07:09:02.289Z,3.70
2023-05-18T07:10:05.397Z,3.88
2023-05-18T07:11:07.697Z,4.10
2023-05-18T07:12:11.431Z,3.78
2023-05-18T07:13:13.916Z,3.88
2023-05-18T07:14:16.263Z,3.40
2023-05-18T07:15:18.580Z,3.60
2023-05-18T07:16:20.847Z,5.15
2023-05-18T07:17:23.283Z,4.30
2023-05-18T07:18:26.584Z,3.85
2023-05-18T07:19:29.234Z,4.13
2023-05-18T07:20:31.492Z,3.33
2023-05-18T07:21:34.531Z,3.63
2023-05-18T07:22:36.800Z,7.28
2023-05-18T07:23:39.039Z,5.80
2023-05-18T07:24:41.552Z,5.05
2023-05-18T07:25:43.804Z,3.17
2023-05-18T07:26:46.337Z,4.10
2023-05-18T07:27:52.207Z,4.70
2023-05-18T07:28:54.398Z,4.90
2023-05-18T07:29:56.681Z,4.78
2023-05-18T07:30:58.914Z,5.32
2023-05-18T07:32:01.288Z,5.30
2023-05-18T07:33:04.494Z,7.50
2023-05-18T07:34:06.732Z,7.10
2023-05-18T07:35:09.182Z,6.10
2023-05-18T07:36:11.457Z,5.60
2023-05-18T07:37:13.760Z,5.10
2023-05-18T07:38:16.146Z,5.07
2023-05-18T07:39:19.839Z,5.10
2023-05-18T07:40:22.376Z,3.85
2023-05-18T07:41:24.996Z,4.35
2023-05-18T07:42:28.146Z,6.05
2023-05-18T07:43:31.849Z,6.15
2023-05-18T07:44:34.160Z,6.03
2023-05-18T07:45:36.371Z,6.18
2023-05-18T07:46:38.635Z,5.65
2023-05-18T07:47:40.952Z,6.00
2023-05-18T07:48:43.498Z,6.35
2023-05-18T07:49:46.257Z,7.72
2023-05-18T07:50:48.460Z,7.47
2023-05-18T07:51:51.477Z,6.43
2023-05-18T07:52:53.747Z,6.00
2023-05-18T07:53:56.444Z,5.85
2023-05-18T07:55:01.753Z,5.10
2023-05-18T07:56:04.590Z,5.18
2023-05-18T07:57:06.844Z,5.40
2023-05-18T07:58:09.623Z,5.32
2023-05-18T07:59:13.229Z,5.28
2023-05-18T08:00:17.327Z,5.30
2023-05-18T08:01:19.602Z,5.53
2023-05-18T08:02:21.849Z,4.32
2023-05-18T08:03:24.338Z,4.93
2023-05-18T08:04:26.879Z,4.55
2023-05-18T08:05:29.258Z,5.03
2023-05-18T08:06:32.087Z,5.25
2023-05-18T08:07:35.594Z,4.97
2023-05-18T08:08:38.089Z,5.72
2023-05-18T08:09:40.901Z,5.70
2023-05-18T08:10:43.600Z,5.20
2023-05-18T08:11:45.944Z,5.22
2023-05-18T08:12:48.635Z,4.93
2023-05-18T08:13:51.613Z,5.40
2023-05-18T08:14:55.293Z,4.28
2023-05-18T08:16:10.493Z,3.95
2023-05-18T08:17:14.522Z,5.25
2023-05-18T08:18:16.861Z,5.40
2023-05-18T08:19:19.430Z,5.05
2023-05-18T08:20:21.910Z,4.45
2023-05-18T08:21:24.201Z,4.30
2023-05-18T08:22:26.473Z,4.32
2023-05-18T08:23:28.679Z,3.78
2023-05-18T08:24:30.833Z,3.30
2023-05-18T08:25:33.316Z,3.30
2023-05-18T08:26:35.865Z,1.80
2023-05-18T08:27:38.150Z,1.92
2023-05-18T08:28:40.402Z,3.30
2023-05-18T08:29:42.587Z,3.80
2023-05-18T08:30:46.275Z,3.15
2023-05-18T08:31:49.682Z,3.38
2023-05-18T08:32:52.392Z,3.05
2023-05-18T08:33:54.733Z,3.53
2023-05-18T08:34:56.877Z,2.58
2023-05-18T08:35:59.395Z,1.88
2023-05-18T08:37:01.586Z,1.70
2023-05-18T08:38:05.689Z,1.65
2023-05-18T08:39:09.506Z,2.20
2023-05-18T08:40:12.945Z,1.98
2023-05-18T08:41:23.794Z,1.98
2023-05-18T08:42:38.072Z,1.83
2023-05-18T08:43:53.370Z,1.92
2023-05-18T08:45:09.680Z,2.20
2023-05-18T08:46:20.039Z,1.67
2023-05-18T08:47:26.394Z,2.30
2023-05-18T08:48:31.618Z,2.45
2023-05-18T08:49:34.822Z,3.22
2023-05-18T08:50:41.584Z,2.40
2023-05-18T08:51:46.184Z,1.83
2023-05-18T08:52:51.629Z,2.53
2023-05-18T08:53:54.875Z,2.65
2023-05-18T08:55:00.371Z,2.42
2023-05-18T08:56:03.425Z,2.53
2023-05-18T08:57:11.665Z,2.30
2023-05-18T08:58:17.638Z,2.50
2023-05-18T08:59:24.098Z,2.67
2023-05-18T09:00:26.773Z,2.70
2023-05-18T09:01:31.384Z,3.20
2023-05-18T09:02:34.328Z,3.17
2023-05-18T09:03:38.017Z,3.22
2023-05-18T09:04:42.904Z,3.92
2023-05-18T09:05:46.766Z,4.07
2023-05-18T09:06:49.969Z,3.97
2023-05-18T09:07:52.361Z,4.05
2023-05-18T09:08:55.555Z,4.57
2023-05-18T09:09:58.342Z,5.13
2023-05-18T09:11:03.494Z,5.38
2023-05-18T09:12:06.744Z,3.70
2023-05-18T09:13:11.387Z,3.90
2023-05-18T09:14:13.823Z,4.47
2023-05-18T09:15:17.636Z,4.55
2023-05-18T09:16:19.918Z,3.78
2023-05-18T09:17:24.073Z,3.88
2023-05-18T09:18:28.785Z,3.20
2023-05-18T09:19:30.988Z,3.35
2023-05-18T09:20:33.233Z,2.40
2023-05-18T09:21:35.870Z,3.05
2023-05-18T09:22:41.128Z,3.75
2023-05-18T09:23:44.558Z,3.45
2023-05-18T09:24:47.513Z,3.28
2023-05-18T09:25:52.408Z,2.05
2023-05-18T09:26:55.882Z,2.33
2023-05-18T09:27:58.204Z,2.60
2023-05-18T09:29:00.568Z,2.85
2023-05-18T09:30:03.654Z,3.20
2023-05-18T09:31:12.610Z,2.65
2023-05-18T09:32:15.216Z,2.83
2023-05-18T09:33:21.837Z,2.88
2023-05-18T09:34:24.758Z,3.10
2023-05-18T09:35:28.158Z,2.90
2023-05-18T09:36:32.469Z,2.88
2023-05-18T09:37:34.824Z,2.53
2023-05-18T09:38:38.359Z,4.18
2023-05-18T09:39:42.123Z,1.80
2023-05-18T09:40:48.883Z,2.20
2023-05-18T09:41:58.822Z,1.90
2023-05-18T09:43:07.402Z,2.30
2023-05-18T09:44:09.813Z,2.10
2023-05-18T09:45:17.761Z,2.63
2023-05-18T09:46:21.073Z,1.70
2023-05-18T09:47:23.510Z,2.60
2023-05-18T09:48:27.115Z,1.98
2023-05-18T09:49:30.971Z,1.70
2023-05-18T09:50:34.836Z,1.60
2023-05-18T09:51:37.795Z,1.20
2023-05-18T09:52:43.816Z,1.00
2023-05-18T09:53:49.039Z,0.63
2023-05-18T09:54:59.742Z,1.13
2023-05-18T09:56:05.908Z,0.70
2023-05-18T09:57:11.179Z,1.10
2023-05-18T09:58:14.217Z,1.55
2023-05-18T09:59:16.782Z,1.67
2023-05-18T10:00:20.851Z,1.55
2023-05-18T10:01:24.063Z,1.00
2023-05-18T10:02:26.722Z,1.55
2023-05-18T10:03:33.803Z,1.35
2023-05-18T10:04:37.657Z,0.98
2023-05-18T10:05:42.761Z,0.98
2023-05-18T10:06:49.948Z,0.88
2023-05-18T10:07:52.340Z,1.60
2023-05-18T10:08:57.732Z,1.55
2023-05-18T10:10:03.453Z,0.98
2023-05-18T10:11:06.535Z,1.55
2023-05-18T10:12:12.514Z,1.90
2023-05-18T10:13:18.181Z,2.60
2023-05-18T10:14:25.063Z,3.10
2023-05-18T10:15:27.344Z,1.40
2023-05-18T10:16:29.613Z,1.13
2023-05-18T10:17:33.964Z,1.20
2023-05-18T10:18:38.855Z,1.15
2023-05-18T10:19:42.272Z,1.30
2023-05-18T10:20:46.362Z,1.70
2023-05-18T10:21:50.140Z,1.33
2023-05-18T10:22:54.465Z,1.23
2023-05-18T10:23:58.135Z,0.90
2023-05-18T10:25:03.510Z,1.20
2023-05-18T10:26:07.648Z,1.23
2023-05-18T10:27:11.255Z,2.00
2023-05-18T10:28:18.464Z,1.40
2023-05-18T10:29:20.849Z,0.77
2023-05-18T10:30:23.504Z,1.10
2023-05-18T10:31:27.954Z,1.02
2023-05-18T10:32:31.116Z,0.80
2023-05-18T10:33:35.852Z,1.02
2023-05-18T10:34:41.975Z,0.90
2023-05-18T10:35:49.398Z,0.73
2023-05-18T10:36:52.143Z,0.85
2023-05-18T10:37:58.250Z,0.68
2023-05-18T10:39:01.226Z,1.10
2023-05-18T10:40:04.217Z,0.90
2023-05-18T10:41:07.859Z,1.10
2023-05-18T10:42:12.068Z,0.75
2023-05-18T10:43:18.880Z,0.93
2023-05-18T10:44:24.168Z,1.00
2023-05-18T10:45:27.870Z,1.35
2023-05-18T10:46:30.646Z,1.40
2023-05-18T10:47:36.458Z,1.38
2023-05-18T10:48:41.120Z,1.40
2023-05-18T10:49:46.642Z,1.90
2023-05-18T10:50:50.433Z,1.00
2023-05-18T10:51:56.625Z,1.10
2023-05-18T10:53:00.844Z,0.90
2023-05-18T10:54:12.357Z,0.90
2023-05-18T10:55:15.590Z,1.00
2023-05-18T10:56:17.881Z,1.20
2023-05-18T10:57:21.121Z,1.00
2023-05-18T10:58:25.653Z,0.60
2023-05-18T10:59:28.278Z,0.30
2023-05-18T11:00:31.914Z,0.20
2023-05-18T11:01:35.283Z,0.20
2023-05-18T11:02:40.327Z,0.30
2023-05-18T11:03:42.748Z,0.40
2023-05-18T11:04:47.563Z,0.20
2023-05-18T11:05:52.310Z,0.30
2023-05-18T11:06:57.708Z,0.30
2023-05-18T11:08:01.784Z,0.30
2023-05-18T11:09:04.488Z,0.30
2023-05-18T11:10:10.609Z,0.32
2023-05-18T11:11:13.123Z,0.70
2023-05-18T11:12:17.861Z,0.50
2023-05-18T11:13:29.203Z,0.70
2023-05-18T11:14:32.864Z,1.48
2023-05-18T11:16:05.432Z,1.77
2023-05-18T11:17:26.213Z,2.30
2023-05-18T11:18:39.888Z,1.45
2023-05-18T11:20:13.584Z,1.15
2023-05-18T11:21:47.366Z,1.00
2023-05-18T11:22:53.954Z,0.98
2023-05-18T11:24:16.360Z,0.70
2023-05-18T11:25:39.053Z,0.70
2023-05-18T11:26:41.968Z,0.90
2023-05-18T11:27:44.372Z,1.00
2023-05-18T11:28:49.447Z,1.35
2023-05-18T11:29:57.784Z,1.13
2023-05-18T11:31:06.577Z,1.00
2023-05-18T11:32:30.057Z,1.00
2023-05-18T11:33:34.215Z,1.08
2023-05-18T11:34:45.866Z,0.70
2023-05-18T11:36:09.477Z,0.50
2023-05-18T11:37:13.087Z,0.40
2023-05-18T11:38:15.357Z,0.40
2023-05-18T11:39:24.629Z,0.90
2023-05-18T11:40:47.052Z,0.77
2023-05-18T11:41:59.900Z,0.40
2023-05-18T11:43:02.253Z,0.90
2023-05-18T11:44:20.001Z,1.00
2023-05-18T11:45:22.236Z,1.10
2023-05-18T11:46:24.465Z,0.90
2023-05-18T11:47:33.788Z,1.27
2023-05-18T11:48:44.062Z,1.40
2023-05-18T11:49:47.880Z,0.85
2023-05-18T11:50:52.850Z,0.80
2023-05-18T11:51:59.053Z,1.40
2023-05-18T11:53:01.513Z,0.50
2023-05-18T11:54:09.046Z,0.40
2023-05-18T11:55:14.321Z,0.68
2023-05-18T11:56:17.204Z,0.65
2023-05-18T11:57:20.803Z,1.02
2023-05-18T11:58:25.018Z,1.00
2023-05-18T11:59:34.682Z,0.70
2023-05-18T12:00:37.635Z,0.30
2023-05-18T12:01:41.808Z,0.32
2023-05-18T12:02:47.199Z,0.30
2023-05-18T12:03:50.732Z,0.20
2023-05-18T12:04:54.721Z,0.40
2023-05-18T12:06:00.390Z,0.65
2023-05-18T12:07:08.124Z,0.50
2023-05-18T12:08:10.677Z,0.82
2023-05-18T12:09:12.919Z,0.80
2023-05-18T12:10:16.174Z,0.80
2023-05-18T12:11:18.473Z,0.95
2023-05-18T12:12:20.876Z,1.35
2023-05-18T12:13:23.810Z,1.52
2023-05-18T12:14:27.921Z,1.40
2023-05-18T12:15:31.389Z,1.30
2023-05-18T12:16:33.927Z,1.30
2023-05-18T12:17:40.801Z,1.38
2023-05-18T12:18:49.435Z,1.60
2023-05-18T12:19:51.768Z,1.20
2023-05-18T12:20:54.043Z,1.00
2023-05-18T12:21:58.905Z,1.10
2023-05-18T12:23:02.843Z,0.95
2023-05-18T12:24:05.667Z,1.35
2023-05-18T12:25:09.085Z,1.00
2023-05-18T12:26:11.629Z,1.10
2023-05-18T12:27:13.897Z,1.00
2023-05-18T12:28:17.227Z,1.55
2023-05-18T12:29:21.910Z,1.30
2023-05-18T12:30:25.073Z,1.10
2023-05-18T12:31:27.691Z,1.48
2023-05-18T12:32:31.106Z,1.20
2023-05-18T12:33:34.086Z,1.05
2023-05-18T12:34:39.814Z,1.05
2023-05-18T12:35:45.754Z,1.15
2023-05-18T12:36:54.821Z,1.23
2023-05-18T12:38:00.544Z,1.55
2023-05-18T12:39:04.429Z,1.20
2023-05-18T12:40:07.933Z,1.42
2023-05-18T12:41:10.201Z,1.50
2023-05-18T12:42:13.679Z,1.88
2023-05-18T12:43:15.955Z,1.88
2023-05-18T12:44:18.424Z,1.70
2023-05-18T12:45:24.196Z,1.85
2023-05-18T12:46:26.780Z,1.00
2023-05-18T12:47:32.802Z,1.30
2023-05-18T12:48:39.032Z,0.90
2023-05-18T12:49:42.889Z,1.10
2023-05-18T12:50:48.823Z,1.17
2023-05-18T12:51:55.776Z,1.15
2023-05-18T12:52:58.087Z,1.17
2023-05-18T12:54:00.321Z,0.85
2023-05-18T12:55:05.118Z,0.70
2023-05-18T12:56:11.364Z,0.85
2023-05-18T12:57:13.505Z,0.50
2023-05-18T12:58:19.162Z,0.50
2023-05-18T12:59:21.939Z,0.75
2023-05-18T13:00:24.203Z,0.43
2023-05-18T13:01:26.936Z,0.70
2023-05-18T13:02:31.550Z,0.57
2023-05-18T13:03:35.262Z,0.60
2023-05-18T13:04:37.595Z,0.70
2023-05-18T13:05:41.988Z,0.65
2023-05-18T13:06:44.431Z,0.35
2023-05-18T13:07:46.663Z,0.60
2023-05-18T13:08:48.935Z,0.50
2023-05-18T13:09:51.431Z,0.50
2023-05-18T13:12:07.963Z,0.40
2023-05-18T13:13:10.515Z,0.70
2023-05-18T13:14:12.695Z,1.30
2023-05-18T13:15:17.053Z,0.95
2023-05-18T13:16:19.438Z,0.40
2023-05-18T13:17:24.913Z,0.50
2023-05-18T13:18:28.289Z,0.50
2023-05-18T13:19:31.689Z,1.00
2023-05-18T13:20:36.833Z,0.57
2023-05-18T13:21:40.132Z,0.57
2023-05-18T13:22:43.155Z,0.85
2023-05-18T13:23:45.606Z,0.90
2023-05-18T13:24:47.785Z,0.60
2023-05-18T13:25:50.547Z,0.57
2023-05-18T13:26:54.116Z,0.68
2023-05-18T13:27:56.892Z,0.45
2023-05-18T13:29:00.193Z,0.52
2023-05-18T13:30:03.280Z,0.50
2023-05-18T13:31:05.750Z,0.50
2023-05-18T13:32:08.594Z,0.50
2023-05-18T13:33:12.313Z,0.60
2023-05-18T13:34:14.721Z,0.57
2023-05-18T13:35:18.566Z,0.95
2023-05-18T13:36:22.487Z,0.50
2023-05-18T13:37:24.955Z,1.52
2023-05-18T13:38:27.171Z,0.50
2023-05-18T13:39:29.335Z,0.50
2023-05-18T13:40:32.020Z,4.97
2023-05-18T13:41:36.588Z,0.47
2023-05-18T13:42:40.476Z,0.52
2023-05-18T13:43:43.002Z,0.40
2023-05-18T13:44:45.233Z,0.40
2023-05-18T13:45:47.494Z,0.40
2023-05-18T13:46:49.902Z,0.50
2023-05-18T13:47:53.715Z,0.40
2023-05-18T13:48:56.170Z,0.63
2023-05-18T13:49:58.540Z,0.50
2023-05-18T13:51:01.133Z,0.70
2023-05-18T13:52:03.597Z,0.70
2023-05-18T13:53:06.911Z,0.73
2023-05-18T13:54:09.327Z,0.40
2023-05-18T13:55:12.558Z,0.40
2023-05-18T13:56:14.787Z,0.60
2023-05-18T13:57:16.982Z,0.40
2023-05-18T13:58:20.694Z,0.40
2023-05-18T13:59:23.533Z,0.60
2023-05-18T14:00:26.252Z,0.60
2023-05-18T14:01:32.708Z,0.40
2023-05-18T14:02:35.141Z,0.50
2023-05-18T14:03:37.503Z,0.50
2023-05-18T14:04:40.358Z,0.43
2023-05-18T14:05:42.614Z,0.47
2023-05-18T14:06:45.180Z,0.52
2023-05-18T14:07:47.432Z,0.65
2023-05-18T14:08:49.711Z,0.40
2023-05-18T14:09:52.132Z,0.30
2023-05-18T14:10:54.314Z,0.50
2023-05-18T14:11:57.959Z,0.50
2023-05-18T14:13:00.209Z,0.50
2023-05-18T14:14:03.925Z,0.57
2023-05-18T14:15:08.462Z,0.43